createdAt,value
2022-08-16T00:01:11.784Z,97713.53
2022-08-16T00:03:40.965Z,97711.25
2022-08-16T00:06:08.087Z,97716.53
2022-08-16T00:08:37.650Z,97714.13
2022-08-16T00:11:15.821Z,97712.47
2022-08-16T00:13:53.686Z,97720.63
2022-08-16T00:17:05.366Z,97712.94
2022-08-16T00:19:09.720Z,97709.94
2022-08-16T00:21:40.593Z,97701.91
2022-08-16T00:24:12.127Z,97704.75
2022-08-16T00:26:44.392Z,97712.44
2022-08-16T00:29:15.981Z,97707.47
2022-08-16T00:32:01.470Z,97713.34
2022-08-16T00:34:44.430Z,97723.38
2022-08-16T00:37:20.978Z,97721.78
2022-08-16T00:39:58.210Z,97729.59
2022-08-16T00:42:30.571Z,97724.06
2022-08-16T00:45:09.299Z,97725.44
2022-08-16T00:47:49.015Z,97719.78
2022-08-16T00:50:20.155Z,97736.00
2022-08-16T00:52:51.135Z,97728.13
2022-08-16T00:55:20.689Z,97730.41
2022-08-16T00:57:59.854Z,97731.00
2022-08-16T01:00:29.564Z,97743.88
2022-08-16T01:02:59.558Z,97739.97
2022-08-16T01:05:26.376Z,97733.00
2022-08-16T01:07:53.912Z,97730.47
2022-08-16T01:10:31.399Z,97732.25
2022-08-16T01:13:26.652Z,97732.84
2022-08-16T01:16:00.968Z,97735.88
2022-08-16T01:18:53.085Z,97740.81
2022-08-16T01:21:33.766Z,97739.09
2022-08-16T01:24:53.175Z,97732.47
2022-08-16T01:27:21.719Z,97736.53
2022-08-16T01:29:59.975Z,97736.88
2022-08-16T01:32:34.201Z,97736.03
2022-08-16T01:35:02.558Z,97736.63
2022-08-16T01:37:35.672Z,97739.09
2022-08-16T01:40:07.059Z,97733.06
2022-08-16T01:42:34.358Z,97739.34
2022-08-16T01:45:01.619Z,97731.88
2022-08-16T01:47:29.442Z,97733.31
2022-08-16T01:50:42.343Z,97728.63
2022-08-16T01:52:46.776Z,97731.34
2022-08-16T01:55:13.503Z,97733.84
2022-08-16T01:57:41.191Z,97729.91
2022-08-16T02:00:20.938Z,97735.25
2022-08-16T02:02:56.374Z,97734.44
2022-08-16T02:05:23.590Z,97737.59
2022-08-16T02:07:51.841Z,97734.25
2022-08-16T02:10:19.621Z,97734.50
2022-08-16T02:12:51.297Z,97736.16
2022-08-16T02:15:26.085Z,97732.44
2022-08-16T02:17:58.334Z,97721.25
2022-08-16T02:20:28.214Z,97725.59
2022-08-16T02:22:58.605Z,97729.53
2022-08-16T02:25:50.811Z,97730.56
2022-08-16T02:28:17.139Z,97723.06
2022-08-16T02:30:48.757Z,97728.22
2022-08-16T02:33:17.678Z,97734.19
2022-08-16T02:35:53.749Z,97733.59
2022-08-16T02:38:22.418Z,97731.47
2022-08-16T02:40:48.953Z,97736.00
2022-08-16T02:43:16.104Z,97727.53
2022-08-16T02:45:42.701Z,97721.91
2022-08-16T02:48:29.946Z,97729.75
2022-08-16T02:51:06.127Z,97725.81
2022-08-16T02:53:36.999Z,97723.31
2022-08-16T02:56:05.544Z,97720.41
2022-08-16T02:58:37.015Z,97717.28
2022-08-16T03:01:03.712Z,97720.53
2022-08-16T03:04:29.170Z,97728.19
2022-08-16T03:06:42.241Z,97732.69
2022-08-16T03:09:10.706Z,97733.66
2022-08-16T03:11:40.337Z,97735.91
2022-08-16T03:14:07.445Z,97727.03
2022-08-16T03:16:39.074Z,97735.22
2022-08-16T03:19:09.164Z,97740.28
2022-08-16T03:21:38.308Z,97739.00
2022-08-16T03:24:27.687Z,97740.84
2022-08-16T03:26:57.971Z,97744.59
2022-08-16T03:29:30.049Z,97743.78
2022-08-16T03:31:59.172Z,97732.84
2022-08-16T03:34:26.611Z,97732.84
2022-08-16T03:36:53.758Z,97738.84
2022-08-16T03:39:20.671Z,97736.69
2022-08-16T03:41:50.380Z,97743.47
2022-08-16T03:44:44.545Z,97750.25
2022-08-16T03:47:05.082Z,97738.91
2022-08-16T03:49:37.352Z,97739.91
2022-08-16T03:52:04.638Z,97744.78
2022-08-16T03:54:31.216Z,97746.59
2022-08-16T03:56:59.004Z,97744.28
2022-08-16T03:59:25.678Z,97750.22
2022-08-16T04:01:56.092Z,97754.75
2022-08-16T04:04:32.493Z,97761.59
2022-08-16T04:07:00.483Z,97758.31
2022-08-16T04:09:35.539Z,97756.84
2022-08-16T04:12:10.557Z,97760.75
2022-08-16T04:14:46.408Z,97756.19
2022-08-16T04:17:15.431Z,97758.13
2022-08-16T04:19:45.558Z,97752.78
2022-08-16T04:22:12.767Z,97749.78
2022-08-16T04:24:39.248Z,97751.19
2022-08-16T04:27:10.008Z,97753.06
2022-08-16T04:29:43.333Z,97752.91
2022-08-16T04:32:13.879Z,97757.81
2022-08-16T04:34:40.729Z,97764.00
2022-08-16T04:37:07.809Z,97758.06
2022-08-16T04:39:46.915Z,97757.72
2022-08-16T04:42:26.019Z,97760.09
2022-08-16T04:44:55.493Z,97759.53
2022-08-16T04:47:31.629Z,97757.94
2022-08-16T04:50:00.773Z,97759.28
2022-08-16T04:52:33.622Z,97761.91
2022-08-16T04:55:07.402Z,97761.13
2022-08-16T04:57:34.941Z,97773.63
2022-08-16T05:00:32.765Z,97771.97
2022-08-16T05:02:56.083Z,97772.09
2022-08-16T05:05:25.163Z,97779.75
2022-08-16T05:08:00.057Z,97777.44
2022-08-16T05:10:28.340Z,97775.31
2022-08-16T05:12:56.813Z,97775.59
2022-08-16T05:15:23.391Z,97775.31
2022-08-16T05:17:58.580Z,97781.56
2022-08-16T05:20:39.248Z,97779.59
2022-08-16T05:23:13.768Z,97783.41
2022-08-16T05:25:48.724Z,97788.19
2022-08-16T05:28:16.568Z,97790.53
2022-08-16T05:30:43.342Z,97788.78
2022-08-16T05:33:16.753Z,97792.25
2022-08-16T05:35:54.955Z,97791.03
2022-08-16T05:38:32.305Z,97788.72
2022-08-16T05:41:02.825Z,97785.56
2022-08-16T05:43:32.179Z,97783.19
2022-08-16T05:46:29.442Z,97796.81
2022-08-16T05:49:03.609Z,97796.88
2022-08-16T05:51:38.332Z,97796.72
2022-08-16T05:54:06.420Z,97796.97
2022-08-16T05:56:34.268Z,97799.88
2022-08-16T05:59:06.075Z,97804.78
2022-08-16T06:01:37.923Z,97807.31
2022-08-16T06:04:13.333Z,97802.19
2022-08-16T06:06:56.961Z,97806.75
2022-08-16T06:09:25.835Z,97800.09
2022-08-16T06:12:26.770Z,97802.28
2022-08-16T06:14:59.640Z,97809.59
2022-08-16T06:17:41.416Z,97806.28
2022-08-16T06:20:24.200Z,97809.72
2022-08-16T06:23:02.868Z,97809.53
2022-08-16T06:25:36.200Z,97821.69
2022-08-16T06:28:08.722Z,97809.81
2022-08-16T06:30:43.513Z,97821.03
2022-08-16T06:33:22.214Z,97819.91
2022-08-16T06:35:54.680Z,97823.19
2022-08-16T06:38:32.183Z,97815.72
2022-08-16T06:41:03.724Z,97817.91
2022-08-16T06:43:30.830Z,97819.63
2022-08-16T06:45:58.886Z,97819.59
2022-08-16T06:48:32.963Z,97825.47
2022-08-16T06:51:04.638Z,97819.69
2022-08-16T06:53:35.420Z,97814.56
2022-08-16T06:56:05.853Z,97816.44
2022-08-16T06:58:33.591Z,97815.25
2022-08-16T07:01:03.949Z,97817.41
2022-08-16T07:03:55.901Z,97821.81
2022-08-16T07:06:26.663Z,97827.50
2022-08-16T07:08:54.646Z,97828.94
2022-08-16T07:11:47.359Z,97825.47
2022-08-16T07:14:26.355Z,97831.13
2022-08-16T07:16:57.897Z,97827.72
2022-08-16T07:20:03.812Z,97826.88
2022-08-16T07:22:37.965Z,97825.88
2022-08-16T07:25:00.113Z,97821.66
2022-08-16T07:27:27.174Z,97827.59
2022-08-16T07:29:56.351Z,97832.00
2022-08-16T07:32:29.664Z,97833.22
2022-08-16T07:34:58.321Z,97830.59
2022-08-16T07:37:24.939Z,97831.81
2022-08-16T07:39:52.530Z,97829.22
2022-08-16T07:42:26.050Z,97835.53
2022-08-16T07:45:02.095Z,97832.03
2022-08-16T07:47:32.015Z,97829.66
2022-08-16T07:50:00.172Z,97827.56
2022-08-16T07:52:32.439Z,97834.13
2022-08-16T07:54:59.826Z,97837.13
2022-08-16T07:57:26.859Z,97830.53
2022-08-16T07:59:53.422Z,97835.91
2022-08-16T08:02:23.906Z,97833.00
2022-08-16T08:04:55.722Z,97840.00
2022-08-16T08:07:22.995Z,97839.31
2022-08-16T08:09:54.150Z,97841.69
2022-08-16T08:12:31.516Z,97844.41
2022-08-16T08:15:02.027Z,97851.97
2022-08-16T08:17:42.854Z,97855.75
2022-08-16T08:20:20.815Z,97854.56
2022-08-16T08:22:54.222Z,97850.56
2022-08-16T08:25:54.403Z,97844.91
2022-08-16T08:28:16.177Z,97848.34
2022-08-16T08:31:00.504Z,97852.50
2022-08-16T08:33:31.432Z,97852.00
2022-08-16T08:36:00.802Z,97856.31
2022-08-16T08:38:45.045Z,97858.47
2022-08-16T08:41:15.388Z,97854.19
2022-08-16T08:43:47.190Z,97854.31
2022-08-16T08:46:21.103Z,97855.56
2022-08-16T08:48:59.720Z,97843.28
2022-08-16T08:51:35.830Z,97844.06
2022-08-16T08:54:09.125Z,97854.41
2022-08-16T08:56:37.672Z,97850.22
2022-08-16T08:59:13.606Z,97856.53
2022-08-16T09:01:56.672Z,97851.50
2022-08-16T09:04:28.610Z,97857.81
2022-08-16T09:06:56.527Z,97858.94
2022-08-16T09:09:25.402Z,97856.22
2022-08-16T09:12:06.318Z,97856.72
2022-08-16T09:14:35.266Z,97851.78
2022-08-16T09:17:11.905Z,97866.84
2022-08-16T09:19:50.302Z,97868.47
2022-08-16T09:22:21.461Z,97874.88
2022-08-16T09:24:52.456Z,97873.03
2022-08-16T09:27:23.367Z,97858.63
2022-08-16T09:30:00.008Z,97863.97
2022-08-16T09:32:28.948Z,97867.22
2022-08-16T09:34:58.445Z,97873.31
2022-08-16T09:37:29.708Z,97861.84
2022-08-16T09:39:59.659Z,97864.97
2022-08-16T09:42:28.436Z,97861.53
2022-08-16T09:45:11.420Z,97862.00
2022-08-16T09:47:56.616Z,97860.03
2022-08-16T09:50:33.273Z,97868.25
2022-08-16T09:53:15.207Z,97866.94
2022-08-16T09:55:49.640Z,97873.72
2022-08-16T09:58:41.893Z,97869.69
2022-08-16T10:01:11.525Z,97867.22
2022-08-16T10:03:38.511Z,97865.50
2022-08-16T10:06:25.899Z,97870.91
2022-08-16T10:09:05.247Z,97866.28
2022-08-16T10:11:52.503Z,97872.13
2022-08-16T10:14:19.714Z,97864.91
2022-08-16T10:16:48.922Z,97872.91
2022-08-16T10:19:19.382Z,97862.84
2022-08-16T10:21:46.589Z,97863.59
2022-08-16T10:24:28.319Z,97862.91
2022-08-16T10:27:18.900Z,97853.59
2022-08-16T10:29:59.954Z,97855.81
2022-08-16T10:32:30.583Z,97860.34
2022-08-16T10:34:59.213Z,97852.81
2022-08-16T10:37:32.834Z,97852.41
2022-08-16T10:40:06.428Z,97864.16
2022-08-16T10:42:52.901Z,97861.00
2022-08-16T10:45:19.839Z,97857.44
2022-08-16T10:47:47.157Z,97865.97
2022-08-16T10:50:23.003Z,97858.91
2022-08-16T10:52:50.638Z,97856.00
2022-08-16T10:55:45.073Z,97857.50
2022-08-16T10:58:17.152Z,97856.69
2022-08-16T11:00:46.040Z,97849.81
2022-08-16T11:06:00.809Z,97853.69
2022-08-16T11:08:35.412Z,97861.19
2022-08-16T11:11:14.150Z,97877.66
2022-08-16T11:14:06.173Z,97857.25
2022-08-16T11:19:20.125Z,97854.66
2022-08-16T11:24:42.352Z,97868.44
2022-08-16T11:27:23.067Z,97864.16
2022-08-16T11:29:53.391Z,97860.09
2022-08-16T11:32:31.012Z,97865.34
2022-08-16T11:35:13.255Z,97864.09
2022-08-16T11:38:46.759Z,97872.59
2022-08-16T11:40:52.617Z,97869.78
2022-08-16T11:43:23.361Z,97872.03
2022-08-16T11:45:53.751Z,97871.44
2022-08-16T11:48:22.296Z,97860.94
2022-08-16T11:50:49.273Z,97860.75
2022-08-16T11:53:17.311Z,97871.91
2022-08-16T11:55:44.537Z,97867.00
2022-08-16T11:58:11.523Z,97857.88
2022-08-16T12:00:51.137Z,97868.66
2022-08-16T12:03:19.178Z,97866.31
2022-08-16T12:05:46.848Z,97867.72
2022-08-16T12:08:18.904Z,97872.81
2022-08-16T12:10:46.841Z,97869.16
2022-08-16T12:13:14.827Z,97863.34
2022-08-16T12:15:41.736Z,97868.53
2022-08-16T12:18:08.971Z,97872.16
2022-08-16T12:20:38.777Z,97856.25
2022-08-16T12:23:06.639Z,97861.31
2022-08-16T12:25:36.105Z,97867.16
2022-08-16T12:28:06.051Z,97857.94
2022-08-16T12:30:38.572Z,97850.78
2022-08-16T12:33:07.750Z,97849.19
2022-08-16T12:35:35.941Z,97854.94
2022-08-16T12:38:38.152Z,97855.91
2022-08-16T12:40:50.855Z,97862.28
2022-08-16T12:43:23.483Z,97852.47
2022-08-16T12:45:53.276Z,97858.72
2022-08-16T12:48:42.399Z,97866.09
2022-08-16T12:51:19.577Z,97873.75
2022-08-16T12:53:47.974Z,97860.72
2022-08-16T12:56:16.704Z,97865.41
2022-08-16T12:58:51.846Z,97862.16
2022-08-16T13:01:26.763Z,97858.22
2022-08-16T13:04:20.317Z,97838.13
2022-08-16T13:06:45.350Z,97848.72
2022-08-16T13:09:23.653Z,97852.00
2022-08-16T13:12:01.668Z,97854.25
2022-08-16T13:14:40.134Z,97849.13
2022-08-16T13:17:15.516Z,97846.91
2022-08-16T13:20:06.601Z,97846.75
2022-08-16T13:22:31.621Z,97849.69
2022-08-16T13:24:59.572Z,97843.00
2022-08-16T13:28:03.019Z,97833.03
2022-08-16T13:30:36.300Z,97846.13
2022-08-16T13:33:00.433Z,97836.50
2022-08-16T13:35:27.729Z,97846.59
2022-08-16T13:38:01.251Z,97831.84
2022-08-16T13:40:27.810Z,97839.41
2022-08-16T13:42:54.305Z,97825.53
2022-08-16T13:45:20.882Z,97831.13
2022-08-16T13:47:48.529Z,97827.78
2022-08-16T13:50:31.443Z,97828.66
2022-08-16T13:53:06.471Z,97826.97
2022-08-16T13:55:33.189Z,97826.38
2022-08-16T13:58:35.472Z,97822.53
2022-08-16T14:00:46.351Z,97827.78
2022-08-16T14:03:21.549Z,97835.41
2022-08-16T14:05:52.417Z,97826.25
2022-08-16T14:08:20.973Z,97823.72
2022-08-16T14:10:51.801Z,97822.97
2022-08-16T14:13:21.056Z,97817.50
2022-08-16T14:15:48.691Z,97825.25
2022-08-16T14:18:20.245Z,97818.03
2022-08-16T14:20:48.501Z,97821.50
2022-08-16T14:23:23.651Z,97816.47
2022-08-16T14:25:53.878Z,97817.38
2022-08-16T14:28:23.479Z,97813.94
2022-08-16T14:30:50.328Z,97820.75
2022-08-16T14:33:18.496Z,97816.53
2022-08-16T14:35:49.078Z,97820.16
2022-08-16T14:38:23.949Z,97815.63
2022-08-16T14:40:55.490Z,97816.44
2022-08-16T14:43:23.578Z,97806.84
2022-08-16T14:45:50.357Z,97805.38
2022-08-16T14:48:25.108Z,97813.91
2022-08-16T14:50:53.607Z,97805.16
2022-08-16T14:53:20.127Z,97808.09
2022-08-16T14:55:47.045Z,97800.53
2022-08-16T14:58:19.440Z,97804.25
2022-08-16T15:00:50.409Z,97795.53
2022-08-16T15:03:19.232Z,97798.81
2022-08-16T15:05:48.319Z,97795.56
2022-08-16T15:08:17.102Z,97795.22
2022-08-16T15:10:46.947Z,97794.63
2022-08-16T15:13:13.930Z,97802.84
2022-08-16T15:15:43.342Z,97798.00
2022-08-16T15:18:12.167Z,97792.72
2022-08-16T15:20:39.472Z,97787.47
2022-08-16T15:23:08.933Z,97784.69
2022-08-16T15:25:47.233Z,97791.22
2022-08-16T15:28:31.482Z,97782.25
2022-08-16T15:31:03.633Z,97792.56
2022-08-16T15:33:32.955Z,97789.56
2022-08-16T15:36:00.136Z,97790.44
2022-08-16T15:38:54.669Z,97790.44
2022-08-16T15:41:42.473Z,97795.69
2022-08-16T15:44:23.078Z,97796.91
2022-08-16T15:46:54.989Z,97792.41
2022-08-16T15:49:34.423Z,97789.81
2022-08-16T15:52:01.682Z,97794.06
2022-08-16T15:54:32.587Z,97799.44
2022-08-16T15:57:11.413Z,97793.50
2022-08-16T15:59:48.684Z,97802.59
2022-08-16T16:02:29.462Z,97800.38
2022-08-16T16:05:06.620Z,97803.81
2022-08-16T16:07:33.998Z,97807.09
2022-08-16T16:10:04.790Z,97805.44
2022-08-16T16:12:53.096Z,97800.56
2022-08-16T16:15:20.133Z,97795.06
2022-08-16T16:17:50.727Z,97812.22
2022-08-16T16:20:18.460Z,97804.84
2022-08-16T16:22:46.465Z,97802.66
2022-08-16T16:25:15.839Z,97802.44
2022-08-16T16:27:43.815Z,97806.25
2022-08-16T16:30:33.452Z,97804.66
2022-08-16T16:32:59.448Z,97800.34
2022-08-16T16:35:32.577Z,97799.81
2022-08-16T16:37:59.599Z,97792.75
2022-08-16T16:40:28.846Z,97796.84
2022-08-16T16:42:59.971Z,97797.78
2022-08-16T16:45:34.816Z,97802.09
2022-08-16T16:48:12.368Z,97797.31
2022-08-16T16:50:45.296Z,97791.72
2022-08-16T16:53:17.250Z,97794.56
2022-08-16T16:55:51.554Z,97795.66
2022-08-16T16:58:43.506Z,97795.94
2022-08-16T17:01:20.750Z,97795.59
2022-08-16T17:04:19.301Z,97798.84
2022-08-16T17:06:53.715Z,97799.16
2022-08-16T17:09:23.978Z,97792.31
2022-08-16T17:11:55.474Z,97792.13
2022-08-16T17:14:32.761Z,97796.75
2022-08-16T17:17:00.880Z,97802.00
2022-08-16T17:19:31.677Z,97799.56
2022-08-16T17:21:59.328Z,97809.19
2022-08-16T17:24:31.380Z,97797.69
2022-08-16T17:27:07.752Z,97806.47
2022-08-16T17:29:34.849Z,97800.19
2022-08-16T17:32:47.369Z,97799.09
2022-08-16T17:35:11.531Z,97798.84
2022-08-16T17:37:48.790Z,97807.31
2022-08-16T17:40:47.958Z,97791.44
2022-08-16T17:43:18.587Z,97797.75
2022-08-16T17:45:46.026Z,97798.28
2022-08-16T17:48:13.492Z,97801.84
2022-08-16T17:50:40.852Z,97803.19
2022-08-16T17:53:08.065Z,97803.44
2022-08-16T17:55:38.081Z,97810.84
2022-08-16T17:58:21.260Z,97806.44
2022-08-16T18:00:52.133Z,97809.97
2022-08-16T18:04:02.538Z,97812.69
2022-08-16T18:06:12.573Z,97810.75
2022-08-16T18:08:40.604Z,97811.84
2022-08-16T18:11:10.277Z,97813.13
2022-08-16T18:13:43.381Z,97819.03
2022-08-16T18:16:11.159Z,97827.16
2022-08-16T18:18:37.751Z,97827.06
2022-08-16T18:21:22.845Z,97823.13
2022-08-16T18:23:49.462Z,97825.44
2022-08-16T18:26:16.019Z,97822.91
2022-08-16T18:28:42.637Z,97825.50
2022-08-16T18:31:09.356Z,97822.63
2022-08-16T18:33:43.646Z,97821.28
2022-08-16T18:36:20.549Z,97826.06
2022-08-16T18:38:49.324Z,97832.94
2022-08-16T18:41:16.490Z,97826.81
2022-08-16T18:43:54.253Z,97834.25
2022-08-16T18:46:29.453Z,97842.69
2022-08-16T18:48:56.027Z,97843.66
2022-08-16T18:51:25.577Z,97845.13
2022-08-16T18:53:54.738Z,97841.09
2022-08-16T18:56:21.173Z,97838.69
2022-08-16T18:58:49.020Z,97850.22
2022-08-16T19:01:15.719Z,97844.53
2022-08-16T19:03:42.358Z,97843.59
2022-08-16T19:06:14.212Z,97850.84
2022-08-16T19:08:43.439Z,97857.72
2022-08-16T19:11:20.024Z,97856.69
2022-08-16T19:13:46.731Z,97862.53
2022-08-16T19:16:14.308Z,97867.66
2022-08-16T19:18:41.222Z,97865.81
2022-08-16T19:21:09.467Z,97861.91
2022-08-16T19:23:37.274Z,97871.56
2022-08-16T19:26:24.601Z,97870.28
2022-08-16T19:28:58.476Z,97871.34
2022-08-16T19:31:32.671Z,97873.59
2022-08-16T19:33:59.898Z,97871.81
2022-08-16T19:36:35.232Z,97883.63
2022-08-16T19:39:08.613Z,97883.59
2022-08-16T19:41:37.580Z,97891.84
2022-08-16T19:44:05.610Z,97892.47
2022-08-16T19:46:32.993Z,97889.84
2022-08-16T19:48:59.589Z,97882.75
2022-08-16T19:51:26.104Z,97896.56
2022-08-16T19:53:52.619Z,97896.16
2022-08-16T19:56:22.300Z,97901.41
2022-08-16T19:59:16.342Z,97901.88
2022-08-16T20:01:41.665Z,97901.75
2022-08-16T20:04:11.841Z,97909.94
2022-08-16T20:06:38.994Z,97910.16
2022-08-16T20:09:06.430Z,97912.09
2022-08-16T20:11:34.726Z,97915.94
2022-08-16T20:14:01.925Z,97915.84
2022-08-16T20:16:28.600Z,97915.50
2022-08-16T20:18:55.107Z,97911.84
2022-08-16T20:21:21.592Z,97910.19
2022-08-16T20:23:48.100Z,97905.84
2022-08-16T20:26:14.787Z,97913.16
2022-08-16T20:28:54.185Z,97906.53
2022-08-16T20:31:25.566Z,97913.63
2022-08-16T20:33:53.140Z,97925.09
2022-08-16T20:36:19.970Z,97921.41
2022-08-16T20:38:47.641Z,97928.28
2022-08-16T20:41:16.372Z,97929.75
2022-08-16T20:43:43.336Z,97935.00
2022-08-16T20:46:10.049Z,97930.94
2022-08-16T20:48:38.961Z,97939.06
2022-08-16T20:51:06.768Z,97941.78
2022-08-16T20:53:33.933Z,97947.38
2022-08-16T20:56:00.450Z,97954.03
2022-08-16T20:58:26.892Z,97954.47
2022-08-16T21:00:53.509Z,97946.19
2022-08-16T21:03:20.084Z,97954.69
2022-08-16T21:05:46.788Z,97947.03
2022-08-16T21:08:27.946Z,97954.28
2022-08-16T21:11:05.074Z,97949.38
2022-08-16T21:13:33.508Z,97945.66
2022-08-16T21:16:02.205Z,97953.09
2022-08-16T21:18:28.979Z,97953.13
2022-08-16T21:20:56.139Z,97958.75
2022-08-16T21:23:22.804Z,97963.31
2022-08-16T21:25:58.437Z,97961.66
2022-08-16T21:28:40.361Z,97965.56
2022-08-16T21:31:16.911Z,97958.09
2022-08-16T21:33:55.053Z,97956.25
2022-08-16T21:36:35.854Z,97954.19
2022-08-16T21:39:06.785Z,97961.00
2022-08-16T21:41:35.399Z,97961.84
2022-08-16T21:44:02.004Z,97966.84
2022-08-16T21:46:28.573Z,97966.41
2022-08-16T21:48:55.191Z,97960.19
2022-08-16T21:51:22.355Z,97968.47
2022-08-16T21:53:48.827Z,97963.44
2022-08-16T21:56:17.122Z,97960.13
2022-08-16T21:58:52.740Z,97959.47
2022-08-16T22:01:22.702Z,97957.59
2022-08-16T22:04:01.488Z,97954.31
2022-08-16T22:06:37.584Z,97955.13
2022-08-16T22:09:05.276Z,97958.19
2022-08-16T22:11:31.883Z,97963.41
2022-08-16T22:13:59.438Z,97960.28
2022-08-16T22:16:29.817Z,97965.41
2022-08-16T22:18:58.559Z,97963.13
2022-08-16T22:21:25.863Z,97958.34
2022-08-16T22:23:56.961Z,97959.13
2022-08-16T22:26:30.925Z,97965.31
2022-08-16T22:29:04.469Z,97966.94
2022-08-16T22:31:32.225Z,97967.53
2022-08-16T22:34:01.829Z,97968.78
2022-08-16T22:36:29.656Z,97964.44
2022-08-16T22:39:01.870Z,97962.13
2022-08-16T22:41:31.779Z,97966.25
2022-08-16T22:43:59.134Z,97963.31
2022-08-16T22:46:25.637Z,97969.72
2022-08-16T22:48:52.153Z,97979.81
2022-08-16T22:51:21.412Z,97973.81
2022-08-16T22:53:48.212Z,97977.69
2022-08-16T22:56:15.592Z,97966.88
2022-08-16T22:58:42.292Z,97975.38
2022-08-16T23:01:10.066Z,97967.06
2022-08-16T23:03:37.762Z,97970.13
2022-08-16T23:06:05.596Z,97969.69
2022-08-16T23:08:39.624Z,97971.06
2022-08-16T23:11:13.505Z,97976.63
2022-08-16T23:13:53.241Z,97974.56
2022-08-16T23:16:33.810Z,97965.94
2022-08-16T23:19:10.268Z,97965.91
2022-08-16T23:21:39.789Z,97967.31
2022-08-16T23:24:08.042Z,97961.84
2022-08-16T23:26:47.203Z,97969.44
2022-08-16T23:29:23.665Z,97965.91
2022-08-16T23:31:53.607Z,97963.69
2022-08-16T23:34:21.680Z,97959.56
2022-08-16T23:36:48.078Z,97958.91
2022-08-16T23:39:14.496Z,97957.41
2022-08-16T23:41:41.014Z,97947.59
2022-08-16T23:44:55.282Z,97937.94
2022-08-16T23:46:54.011Z,97934.63
2022-08-16T23:49:59.216Z,97927.81
2022-08-16T23:52:10.630Z,97927.75
2022-08-16T23:54:37.072Z,97933.97
2022-08-16T23:57:03.766Z,97942.22
2022-08-16T23:59:30.363Z,97938.91
